sensor_id;sensor_type;location;lat;lon;timestamp;P1;durP1;ratioP1;P2;durP2;ratioP2
20348;SDS011;10332;50.208;18.988;2022-12-18T00:01:28;59.80;;;23.80;;
20348;SDS011;10332;50.208;18.988;2022-12-18T00:03:59;64.03;;;24.27;;
20348;SDS011;10332;50.208;18.988;2022-12-18T00:06:29;59.63;;;23.87;;
20348;SDS011;10332;50.208;18.988;2022-12-18T00:08:57;60.00;;;24.17;;
20348;SDS011;10332;50.208;18.988;2022-12-18T00:11:27;64.43;;;23.83;;
20348;SDS011;10332;50.208;18.988;2022-12-18T00:13:58;54.63;;;22.83;;
20348;SDS011;10332;50.208;18.988;2022-12-18T00:16:28;60.93;;;23.73;;
20348;SDS011;10332;50.208;18.988;2022-12-18T00:19:02;67.83;;;24.93;;
20348;SDS011;10332;50.208;18.988;2022-12-18T00:21:31;65.30;;;25.20;;
20348;SDS011;10332;50.208;18.988;2022-12-18T00:24:00;61.80;;;24.83;;
20348;SDS011;10332;50.208;18.988;2022-12-18T00:26:29;58.50;;;23.83;;
20348;SDS011;10332;50.208;18.988;2022-12-18T00:29:03;65.93;;;25.90;;
20348;SDS011;10332;50.208;18.988;2022-12-18T00:31:40;60.23;;;24.20;;
20348;SDS011;10332;50.208;18.988;2022-12-18T00:34:10;60.47;;;24.20;;
20348;SDS011;10332;50.208;18.988;2022-12-18T00:36:39;62.03;;;24.97;;
20348;SDS011;10332;50.208;18.988;2022-12-18T00:39:08;55.60;;;23.37;;
20348;SDS011;10332;50.208;18.988;2022-12-18T00:41:37;62.63;;;24.93;;
20348;SDS011;10332;50.208;18.988;2022-12-18T00:44:23;61.43;;;25.00;;
20348;SDS011;10332;50.208;18.988;2022-12-18T00:46:50;66.77;;;26.10;;
20348;SDS011;10332;50.208;18.988;2022-12-18T00:49:18;62.53;;;26.30;;
20348;SDS011;10332;50.208;18.988;2022-12-18T00:51:46;59.93;;;23.60;;
20348;SDS011;10332;50.208;18.988;2022-12-18T00:54:14;63.60;;;25.87;;
20348;SDS011;10332;50.208;18.988;2022-12-18T00:56:42;62.93;;;26.27;;
20348;SDS011;10332;50.208;18.988;2022-12-18T00:59:17;59.83;;;23.57;;
20348;SDS011;10332;50.208;18.988;2022-12-18T01:01:45;58.80;;;24.03;;
20348;SDS011;10332;50.208;18.988;2022-12-18T01:04:14;64.83;;;24.73;;
20348;SDS011;10332;50.208;18.988;2022-12-18T01:06:41;56.97;;;22.43;;
20348;SDS011;10332;50.208;18.988;2022-12-18T01:09:10;58.63;;;23.33;;
20348;SDS011;10332;50.208;18.988;2022-12-18T01:11:39;61.37;;;24.93;;
20348;SDS011;10332;50.208;18.988;2022-12-18T01:14:07;58.50;;;24.30;;
20348;SDS011;10332;50.208;18.988;2022-12-18T01:16:35;65.93;;;25.60;;
20348;SDS011;10332;50.208;18.988;2022-12-18T01:19:02;62.80;;;25.43;;
20348;SDS011;10332;50.208;18.988;2022-12-18T01:21:29;61.17;;;24.13;;
20348;SDS011;10332;50.208;18.988;2022-12-18T01:23:58;62.10;;;24.80;;
20348;SDS011;10332;50.208;18.988;2022-12-18T01:26:25;60.23;;;24.47;;
20348;SDS011;10332;50.208;18.988;2022-12-18T01:28:56;59.93;;;22.87;;
20348;SDS011;10332;50.208;18.988;2022-12-18T01:31:28;57.33;;;22.67;;
20348;SDS011;10332;50.208;18.988;2022-12-18T01:34:02;63.43;;;24.77;;
20348;SDS011;10332;50.208;18.988;2022-12-18T01:36:32;60.27;;;23.57;;
20348;SDS011;10332;50.208;18.988;2022-12-18T01:39:04;55.50;;;23.37;;
20348;SDS011;10332;50.208;18.988;2022-12-18T01:41:39;59.67;;;24.80;;
20348;SDS011;10332;50.208;18.988;2022-12-18T01:50:17;54.57;;;21.87;;
20348;SDS011;10332;50.208;18.988;2022-12-18T01:52:51;55.00;;;21.80;;
20348;SDS011;10332;50.208;18.988;2022-12-18T01:55:28;52.70;;;20.63;;
20348;SDS011;10332;50.208;18.988;2022-12-18T01:58:01;50.60;;;21.67;;
20348;SDS011;10332;50.208;18.988;2022-12-18T02:00:30;54.77;;;22.77;;
20348;SDS011;10332;50.208;18.988;2022-12-18T02:02:58;50.97;;;20.53;;
20348;SDS011;10332;50.208;18.988;2022-12-18T02:05:44;56.10;;;21.93;;
20348;SDS011;10332;50.208;18.988;2022-12-18T02:08:37;52.47;;;20.17;;
20348;SDS011;10332;50.208;18.988;2022-12-18T02:14:28;54.27;;;20.93;;
20348;SDS011;10332;50.208;18.988;2022-12-18T02:28:15;51.67;;;21.00;;
20348;SDS011;10332;50.208;18.988;2022-12-18T02:30:47;58.33;;;21.53;;
20348;SDS011;10332;50.208;18.988;2022-12-18T02:33:19;58.03;;;23.07;;
20348;SDS011;10332;50.208;18.988;2022-12-18T02:35:50;59.50;;;23.07;;
20348;SDS011;10332;50.208;18.988;2022-12-18T02:38:21;58.90;;;22.60;;
20348;SDS011;10332;50.208;18.988;2022-12-18T02:40:51;61.60;;;24.03;;
20348;SDS011;10332;50.208;18.988;2022-12-18T02:43:20;60.13;;;24.83;;
20348;SDS011;10332;50.208;18.988;2022-12-18T02:45:49;63.20;;;26.33;;
20348;SDS011;10332;50.208;18.988;2022-12-18T02:48:25;59.00;;;23.73;;
20348;SDS011;10332;50.208;18.988;2022-12-18T02:51:14;64.83;;;26.53;;
20348;SDS011;10332;50.208;18.988;2022-12-18T02:54:00;68.73;;;24.10;;
20348;SDS011;10332;50.208;18.988;2022-12-18T02:56:50;57.00;;;24.50;;
20348;SDS011;10332;50.208;18.988;2022-12-18T02:59:25;64.07;;;26.83;;
20348;SDS011;10332;50.208;18.988;2022-12-18T03:02:14;67.27;;;25.90;;
20348;SDS011;10332;50.208;18.988;2022-12-18T03:04:54;61.30;;;25.10;;
20348;SDS011;10332;50.208;18.988;2022-12-18T03:07:46;63.57;;;25.87;;
20348;SDS011;10332;50.208;18.988;2022-12-18T03:10:25;59.77;;;24.57;;
20348;SDS011;10332;50.208;18.988;2022-12-18T03:13:08;64.77;;;24.93;;
20348;SDS011;10332;50.208;18.988;2022-12-18T03:15:44;63.63;;;25.47;;
20348;SDS011;10332;50.208;18.988;2022-12-18T03:18:20;60.53;;;24.87;;
20348;SDS011;10332;50.208;18.988;2022-12-18T03:20:54;60.60;;;25.00;;
20348;SDS011;10332;50.208;18.988;2022-12-18T03:23:30;61.40;;;24.20;;
20348;SDS011;10332;50.208;18.988;2022-12-18T03:26:11;65.73;;;27.73;;
20348;SDS011;10332;50.208;18.988;2022-12-18T03:28:45;64.23;;;25.63;;
20348;SDS011;10332;50.208;18.988;2022-12-18T03:31:22;68.97;;;25.73;;
20348;SDS011;10332;50.208;18.988;2022-12-18T03:33:54;63.87;;;24.87;;
20348;SDS011;10332;50.208;18.988;2022-12-18T03:36:26;60.87;;;24.70;;
20348;SDS011;10332;50.208;18.988;2022-12-18T03:38:54;67.37;;;26.37;;
20348;SDS011;10332;50.208;18.988;2022-12-18T03:41:29;65.27;;;24.63;;
20348;SDS011;10332;50.208;18.988;2022-12-18T03:47:19;65.20;;;25.13;;
20348;SDS011;10332;50.208;18.988;2022-12-18T03:50:21;62.17;;;24.50;;
20348;SDS011;10332;50.208;18.988;2022-12-18T03:56:25;64.20;;;25.13;;
20348;SDS011;10332;50.208;18.988;2022-12-18T03:58:59;71.20;;;26.07;;
20348;SDS011;10332;50.208;18.988;2022-12-18T04:01:32;65.13;;;26.70;;
20348;SDS011;10332;50.208;18.988;2022-12-18T04:04:06;58.47;;;23.93;;
20348;SDS011;10332;50.208;18.988;2022-12-18T04:06:36;71.87;;;27.60;;
20348;SDS011;10332;50.208;18.988;2022-12-18T04:09:06;67.53;;;26.97;;
20348;SDS011;10332;50.208;18.988;2022-12-18T04:11:34;65.23;;;26.83;;
20348;SDS011;10332;50.208;18.988;2022-12-18T04:14:02;64.83;;;27.00;;
20348;SDS011;10332;50.208;18.988;2022-12-18T04:16:32;66.13;;;26.50;;
20348;SDS011;10332;50.208;18.988;2022-12-18T04:19:00;62.10;;;25.07;;
20348;SDS011;10332;50.208;18.988;2022-12-18T04:21:27;70.83;;;25.70;;
20348;SDS011;10332;50.208;18.988;2022-12-18T04:23:55;66.27;;;25.43;;
20348;SDS011;10332;50.208;18.988;2022-12-18T04:26:22;58.83;;;24.73;;
20348;SDS011;10332;50.208;18.988;2022-12-18T04:28:50;63.70;;;25.60;;
20348;SDS011;10332;50.208;18.988;2022-12-18T04:31:17;65.27;;;24.33;;
20348;SDS011;10332;50.208;18.988;2022-12-18T04:33:44;65.63;;;25.70;;
20348;SDS011;10332;50.208;18.988;2022-12-18T04:36:12;64.30;;;25.63;;
20348;SDS011;10332;50.208;18.988;2022-12-18T04:38:39;70.53;;;25.60;;
20348;SDS011;10332;50.208;18.988;2022-12-18T04:41:07;68.80;;;26.37;;
20348;SDS011;10332;50.208;18.988;2022-12-18T04:43:34;78.00;;;28.93;;
20348;SDS011;10332;50.208;18.988;2022-12-18T04:46:03;70.03;;;28.37;;
20348;SDS011;10332;50.208;18.988;2022-12-18T04:48:35;69.93;;;27.53;;
20348;SDS011;10332;50.208;18.988;2022-12-18T04:51:04;81.13;;;30.93;;
20348;SDS011;10332;50.208;18.988;2022-12-18T04:53:32;71.40;;;27.67;;
20348;SDS011;10332;50.208;18.988;2022-12-18T04:58:37;64.93;;;25.47;;
20348;SDS011;10332;50.208;18.988;2022-12-18T05:01:06;65.73;;;24.37;;
20348;SDS011;10332;50.208;18.988;2022-12-18T05:03:36;80.63;;;27.63;;
20348;SDS011;10332;50.208;18.988;2022-12-18T05:06:05;77.83;;;27.90;;
20348;SDS011;10332;50.208;18.988;2022-12-18T05:08:34;74.67;;;28.30;;
20348;SDS011;10332;50.208;18.988;2022-12-18T05:11:02;78.50;;;30.67;;
20348;SDS011;10332;50.208;18.988;2022-12-18T05:13:37;78.53;;;29.83;;
20348;SDS011;10332;50.208;18.988;2022-12-18T05:16:05;77.90;;;28.07;;
20348;SDS011;10332;50.208;18.988;2022-12-18T05:18:34;83.93;;;30.23;;
20348;SDS011;10332;50.208;18.988;2022-12-18T05:21:02;75.03;;;29.97;;
20348;SDS011;10332;50.208;18.988;2022-12-18T05:23:30;82.60;;;29.67;;
20348;SDS011;10332;50.208;18.988;2022-12-18T05:25:58;76.80;;;29.17;;
20348;SDS011;10332;50.208;18.988;2022-12-18T05:28:29;83.13;;;33.77;;
20348;SDS011;10332;50.208;18.988;2022-12-18T05:30:59;77.57;;;31.03;;
20348;SDS011;10332;50.208;18.988;2022-12-18T05:33:30;83.27;;;33.20;;
20348;SDS011;10332;50.208;18.988;2022-12-18T05:36:01;77.77;;;31.20;;
20348;SDS011;10332;50.208;18.988;2022-12-18T05:38:33;73.83;;;29.17;;
20348;SDS011;10332;50.208;18.988;2022-12-18T05:41:03;80.57;;;32.87;;
20348;SDS011;10332;50.208;18.988;2022-12-18T05:43:33;78.83;;;31.93;;
20348;SDS011;10332;50.208;18.988;2022-12-18T05:46:04;89.50;;;34.43;;
20348;SDS011;10332;50.208;18.988;2022-12-18T05:48:40;71.70;;;28.83;;
20348;SDS011;10332;50.208;18.988;2022-12-18T05:51:09;80.97;;;31.77;;
20348;SDS011;10332;50.208;18.988;2022-12-18T05:53:41;87.00;;;33.70;;
20348;SDS011;10332;50.208;18.988;2022-12-18T05:56:11;87.00;;;31.33;;
20348;SDS011;10332;50.208;18.988;2022-12-18T05:58:47;81.03;;;30.93;;
20348;SDS011;10332;50.208;18.988;2022-12-18T06:01:20;77.63;;;30.17;;
20348;SDS011;10332;50.208;18.988;2022-12-18T06:03:52;86.13;;;34.63;;
20348;SDS011;10332;50.208;18.988;2022-12-18T06:06:24;88.07;;;34.13;;
20348;SDS011;10332;50.208;18.988;2022-12-18T06:08:54;90.33;;;34.13;;
20348;SDS011;10332;50.208;18.988;2022-12-18T06:11:23;88.27;;;35.33;;
20348;SDS011;10332;50.208;18.988;2022-12-18T06:13:54;88.93;;;34.67;;
20348;SDS011;10332;50.208;18.988;2022-12-18T06:16:25;91.73;;;35.40;;
20348;SDS011;10332;50.208;18.988;2022-12-18T06:18:58;79.33;;;32.73;;
20348;SDS011;10332;50.208;18.988;2022-12-18T06:21:28;88.73;;;34.63;;
20348;SDS011;10332;50.208;18.988;2022-12-18T06:23:57;84.03;;;32.47;;
20348;SDS011;10332;50.208;18.988;2022-12-18T06:26:26;82.77;;;32.00;;
20348;SDS011;10332;50.208;18.988;2022-12-18T06:28:54;82.87;;;33.17;;
20348;SDS011;10332;50.208;18.988;2022-12-18T06:31:21;84.93;;;31.93;;
20348;SDS011;10332;50.208;18.988;2022-12-18T06:33:49;92.10;;;35.37;;
20348;SDS011;10332;50.208;18.988;2022-12-18T06:36:16;97.33;;;34.30;;
20348;SDS011;10332;50.208;18.988;2022-12-18T06:38:44;90.60;;;35.57;;
20348;SDS011;10332;50.208;18.988;2022-12-18T06:41:15;84.47;;;32.23;;
20348;SDS011;10332;50.208;18.988;2022-12-18T06:43:46;89.07;;;34.23;;
20348;SDS011;10332;50.208;18.988;2022-12-18T06:46:14;90.50;;;34.30;;
20348;SDS011;10332;50.208;18.988;2022-12-18T06:48:42;94.70;;;36.13;;
20348;SDS011;10332;50.208;18.988;2022-12-18T06:51:15;96.77;;;36.27;;
20348;SDS011;10332;50.208;18.988;2022-12-18T06:53:47;95.87;;;37.57;;
20348;SDS011;10332;50.208;18.988;2022-12-18T06:56:15;95.77;;;38.17;;
20348;SDS011;10332;50.208;18.988;2022-12-18T06:58:43;91.23;;;36.57;;
20348;SDS011;10332;50.208;18.988;2022-12-18T07:01:11;108.20;;;42.97;;
20348;SDS011;10332;50.208;18.988;2022-12-18T07:03:41;102.10;;;39.70;;
20348;SDS011;10332;50.208;18.988;2022-12-18T07:06:17;113.33;;;46.47;;
20348;SDS011;10332;50.208;18.988;2022-12-18T07:08:47;108.90;;;44.07;;
20348;SDS011;10332;50.208;18.988;2022-12-18T07:11:16;102.17;;;43.00;;
20348;SDS011;10332;50.208;18.988;2022-12-18T07:13:45;178.33;;;79.17;;
20348;SDS011;10332;50.208;18.988;2022-12-18T07:16:17;125.63;;;53.77;;
20348;SDS011;10332;50.208;18.988;2022-12-18T07:18:52;102.23;;;42.60;;
20348;SDS011;10332;50.208;18.988;2022-12-18T07:21:21;94.23;;;37.87;;
20348;SDS011;10332;50.208;18.988;2022-12-18T07:23:50;82.23;;;33.67;;
20348;SDS011;10332;50.208;18.988;2022-12-18T07:26:19;89.90;;;35.90;;
20348;SDS011;10332;50.208;18.988;2022-12-18T07:28:48;90.13;;;35.83;;
20348;SDS011;10332;50.208;18.988;2022-12-18T07:31:18;96.73;;;37.63;;
20348;SDS011;10332;50.208;18.988;2022-12-18T07:33:48;101.13;;;40.73;;
20348;SDS011;10332;50.208;18.988;2022-12-18T07:36:17;114.53;;;42.03;;
20348;SDS011;10332;50.208;18.988;2022-12-18T07:38:49;118.37;;;45.50;;
20348;SDS011;10332;50.208;18.988;2022-12-18T07:41:19;105.80;;;41.83;;
20348;SDS011;10332;50.208;18.988;2022-12-18T07:43:47;106.23;;;42.50;;
20348;SDS011;10332;50.208;18.988;2022-12-18T07:46:15;89.20;;;37.43;;
20348;SDS011;10332;50.208;18.988;2022-12-18T07:48:44;92.00;;;38.23;;
20348;SDS011;10332;50.208;18.988;2022-12-18T07:51:15;81.93;;;32.47;;
20348;SDS011;10332;50.208;18.988;2022-12-18T07:53:45;92.03;;;35.53;;
20348;SDS011;10332;50.208;18.988;2022-12-18T07:56:18;83.80;;;34.53;;
20348;SDS011;10332;50.208;18.988;2022-12-18T07:58:56;91.30;;;36.80;;
20348;SDS011;10332;50.208;18.988;2022-12-18T08:01:26;96.60;;;39.53;;
20348;SDS011;10332;50.208;18.988;2022-12-18T08:03:54;97.57;;;40.10;;
20348;SDS011;10332;50.208;18.988;2022-12-18T08:06:22;100.43;;;41.93;;
20348;SDS011;10332;50.208;18.988;2022-12-18T08:08:51;97.20;;;38.90;;
20348;SDS011;10332;50.208;18.988;2022-12-18T08:11:20;83.83;;;37.03;;
20348;SDS011;10332;50.208;18.988;2022-12-18T08:13:49;76.33;;;32.10;;
20348;SDS011;10332;50.208;18.988;2022-12-18T08:16:18;82.73;;;34.13;;
20348;SDS011;10332;50.208;18.988;2022-12-18T08:18:47;89.50;;;37.63;;
20348;SDS011;10332;50.208;18.988;2022-12-18T08:21:21;87.93;;;36.97;;
20348;SDS011;10332;50.208;18.988;2022-12-18T08:23:52;101.57;;;38.83;;
20348;SDS011;10332;50.208;18.988;2022-12-18T08:26:22;82.20;;;35.07;;
20348;SDS011;10332;50.208;18.988;2022-12-18T08:28:53;81.40;;;33.27;;
20348;SDS011;10332;50.208;18.988;2022-12-18T08:31:22;77.43;;;33.33;;
20348;SDS011;10332;50.208;18.988;2022-12-18T08:33:52;99.60;;;43.57;;
20348;SDS011;10332;50.208;18.988;2022-12-18T08:36:21;93.83;;;42.53;;
20348;SDS011;10332;50.208;18.988;2022-12-18T08:38:50;92.30;;;41.17;;
20348;SDS011;10332;50.208;18.988;2022-12-18T08:41:18;89.47;;;39.60;;
20348;SDS011;10332;50.208;18.988;2022-12-18T08:43:46;88.77;;;37.10;;
20348;SDS011;10332;50.208;18.988;2022-12-18T08:46:38;87.75;;;39.17;;
20348;SDS011;10332;50.208;18.988;2022-12-18T08:49:09;90.47;;;41.95;;
20348;SDS011;10332;50.208;18.988;2022-12-18T08:51:38;91.40;;;42.00;;
20348;SDS011;10332;50.208;18.988;2022-12-18T08:54:06;92.65;;;47.58;;
20348;SDS011;10332;50.208;18.988;2022-12-18T08:56:34;97.95;;;46.88;;
20348;SDS011;10332;50.208;18.988;2022-12-18T08:59:01;99.35;;;48.45;;
20348;SDS011;10332;50.208;18.988;2022-12-18T09:01:31;87.60;;;43.22;;
20348;SDS011;10332;50.208;18.988;2022-12-18T09:03:59;85.95;;;42.78;;
20348;SDS011;10332;50.208;18.988;2022-12-18T09:06:27;87.15;;;43.53;;
20348;SDS011;10332;50.208;18.988;2022-12-18T09:08:54;75.78;;;36.85;;
20348;SDS011;10332;50.208;18.988;2022-12-18T09:11:23;79.80;;;40.85;;
20348;SDS011;10332;50.208;18.988;2022-12-18T09:13:53;80.78;;;42.38;;
20348;SDS011;10332;50.208;18.988;2022-12-18T09:16:23;85.35;;;38.40;;
20348;SDS011;10332;50.208;18.988;2022-12-18T09:18:58;74.65;;;35.70;;
20348;SDS011;10332;50.208;18.988;2022-12-18T09:21:27;78.78;;;39.47;;
20348;SDS011;10332;50.208;18.988;2022-12-18T09:24:03;73.95;;;36.22;;
20348;SDS011;10332;50.208;18.988;2022-12-18T09:26:34;74.13;;;37.63;;
20348;SDS011;10332;50.208;18.988;2022-12-18T09:29:02;72.82;;;34.55;;
20348;SDS011;10332;50.208;18.988;2022-12-18T09:31:30;98.50;;;50.72;;
20348;SDS011;10332;50.208;18.988;2022-12-18T09:33:58;75.78;;;40.10;;
20348;SDS011;10332;50.208;18.988;2022-12-18T09:36:25;74.47;;;36.97;;
20348;SDS011;10332;50.208;18.988;2022-12-18T09:38:53;66.40;;;34.47;;
20348;SDS011;10332;50.208;18.988;2022-12-18T09:49:34;71.40;;;37.95;;
20348;SDS011;10332;50.208;18.988;2022-12-18T09:52:14;74.53;;;41.65;;
20348;SDS011;10332;50.208;18.988;2022-12-18T09:55:13;80.05;;;42.47;;
20348;SDS011;10332;50.208;18.988;2022-12-18T09:58:04;71.35;;;38.60;;
20348;SDS011;10332;50.208;18.988;2022-12-18T10:00:51;66.30;;;37.45;;
20348;SDS011;10332;50.208;18.988;2022-12-18T10:03:20;69.88;;;37.45;;
20348;SDS011;10332;50.208;18.988;2022-12-18T10:09:22;69.22;;;37.00;;
20348;SDS011;10332;50.208;18.988;2022-12-18T10:12:23;71.30;;;36.53;;
20348;SDS011;10332;50.208;18.988;2022-12-18T10:15:17;72.57;;;36.38;;
20348;SDS011;10332;50.208;18.988;2022-12-18T10:20:52;72.70;;;34.83;;
20348;SDS011;10332;50.208;18.988;2022-12-18T10:23:32;70.75;;;35.50;;
20348;SDS011;10332;50.208;18.988;2022-12-18T10:26:25;65.00;;;32.95;;
20348;SDS011;10332;50.208;18.988;2022-12-18T10:28:53;57.85;;;30.13;;
20348;SDS011;10332;50.208;18.988;2022-12-18T10:31:24;70.95;;;33.33;;
20348;SDS011;10332;50.208;18.988;2022-12-18T10:33:53;63.88;;;31.73;;
20348;SDS011;10332;50.208;18.988;2022-12-18T10:36:23;66.47;;;31.23;;
20348;SDS011;10332;50.208;18.988;2022-12-18T10:38:51;68.47;;;33.00;;
20348;SDS011;10332;50.208;18.988;2022-12-18T10:43:51;66.82;;;32.55;;
20348;SDS011;10332;50.208;18.988;2022-12-18T10:46:38;50.22;;;25.10;;
20348;SDS011;10332;50.208;18.988;2022-12-18T10:49:17;44.47;;;22.88;;
20348;SDS011;10332;50.208;18.988;2022-12-18T10:51:50;49.08;;;23.88;;
20348;SDS011;10332;50.208;18.988;2022-12-18T10:54:33;51.03;;;28.77;;
20348;SDS011;10332;50.208;18.988;2022-12-18T10:57:16;56.00;;;31.17;;
20348;SDS011;10332;50.208;18.988;2022-12-18T11:00:23;49.85;;;27.73;;
20348;SDS011;10332;50.208;18.988;2022-12-18T11:02:57;53.78;;;30.02;;
20348;SDS011;10332;50.208;18.988;2022-12-18T11:05:31;55.03;;;31.02;;
20348;SDS011;10332;50.208;18.988;2022-12-18T11:08:01;53.95;;;29.83;;
20348;SDS011;10332;50.208;18.988;2022-12-18T11:10:33;61.38;;;33.00;;
20348;SDS011;10332;50.208;18.988;2022-12-18T11:13:16;46.58;;;25.48;;
20348;SDS011;10332;50.208;18.988;2022-12-18T11:15:48;45.42;;;24.08;;
20348;SDS011;10332;50.208;18.988;2022-12-18T11:18:19;44.55;;;24.15;;
20348;SDS011;10332;50.208;18.988;2022-12-18T11:20:55;43.72;;;23.20;;
20348;SDS011;10332;50.208;18.988;2022-12-18T11:23:33;44.67;;;22.95;;
20348;SDS011;10332;50.208;18.988;2022-12-18T11:26:03;41.85;;;22.50;;
20348;SDS011;10332;50.208;18.988;2022-12-18T11:31:35;42.75;;;21.92;;
20348;SDS011;10332;50.208;18.988;2022-12-18T11:36:58;43.25;;;22.73;;
20348;SDS011;10332;50.208;18.988;2022-12-18T11:39:36;41.60;;;21.08;;
20348;SDS011;10332;50.208;18.988;2022-12-18T11:47:54;35.97;;;19.30;;
20348;SDS011;10332;50.208;18.988;2022-12-18T11:50:54;37.95;;;21.05;;
20348;SDS011;10332;50.208;18.988;2022-12-18T11:53:25;30.00;;;17.45;;
20348;SDS011;10332;50.208;18.988;2022-12-18T11:55:56;28.27;;;16.45;;
20348;SDS011;10332;50.208;18.988;2022-12-18T12:05:25;29.25;;;17.90;;
20348;SDS011;10332;50.208;18.988;2022-12-18T12:07:38;30.15;;;18.13;;
20348;SDS011;10332;50.208;18.988;2022-12-18T12:10:42;28.95;;;17.23;;
20348;SDS011;10332;50.208;18.988;2022-12-18T12:16:28;32.45;;;18.30;;
20348;SDS011;10332;50.208;18.988;2022-12-18T12:21:58;32.22;;;19.70;;
20348;SDS011;10332;50.208;18.988;2022-12-18T12:28:20;28.70;;;18.02;;
20348;SDS011;10332;50.208;18.988;2022-12-18T12:31:06;31.27;;;19.58;;
20348;SDS011;10332;50.208;18.988;2022-12-18T12:37:15;30.42;;;19.85;;
20348;SDS011;10332;50.208;18.988;2022-12-18T12:40:03;34.58;;;20.73;;
20348;SDS011;10332;50.208;18.988;2022-12-18T12:42:55;29.55;;;18.50;;
20348;SDS011;10332;50.208;18.988;2022-12-18T12:45:54;31.67;;;19.33;;
20348;SDS011;10332;50.208;18.988;2022-12-18T12:51:28;31.70;;;20.55;;
20348;SDS011;10332;50.208;18.988;2022-12-18T12:54:02;40.70;;;24.05;;
20348;SDS011;10332;50.208;18.988;2022-12-18T12:56:40;35.10;;;22.08;;
20348;SDS011;10332;50.208;18.988;2022-12-18T12:59:31;34.05;;;22.00;;
20348;SDS011;10332;50.208;18.988;2022-12-18T13:08:11;37.63;;;22.85;;
20348;SDS011;10332;50.208;18.988;2022-12-18T13:10:57;36.55;;;23.02;;
20348;SDS011;10332;50.208;18.988;2022-12-18T13:13:52;32.40;;;20.98;;
20348;SDS011;10332;50.208;18.988;2022-12-18T13:16:24;31.08;;;20.77;;
20348;SDS011;10332;50.208;18.988;2022-12-18T13:18:56;34.00;;;21.52;;
20348;SDS011;10332;50.208;18.988;2022-12-18T13:21:27;34.58;;;21.92;;
20348;SDS011;10332;50.208;18.988;2022-12-18T13:23:58;35.13;;;21.83;;
20348;SDS011;10332;50.208;18.988;2022-12-18T13:26:53;36.28;;;22.45;;
20348;SDS011;10332;50.208;18.988;2022-12-18T13:29:40;35.10;;;21.75;;
20348;SDS011;10332;50.208;18.988;2022-12-18T13:32:20;39.05;;;22.70;;
20348;SDS011;10332;50.208;18.988;2022-12-18T13:37:51;37.30;;;22.23;;
20348;SDS011;10332;50.208;18.988;2022-12-18T13:43:52;40.50;;;23.17;;
20348;SDS011;10332;50.208;18.988;2022-12-18T13:51:24;43.13;;;25.63;;
20348;SDS011;10332;50.208;18.988;2022-12-18T13:56:30;52.42;;;29.50;;
20348;SDS011;10332;50.208;18.988;2022-12-18T14:04:33;66.65;;;35.42;;
20348;SDS011;10332;50.208;18.988;2022-12-18T14:09:54;59.22;;;32.38;;
20348;SDS011;10332;50.208;18.988;2022-12-18T14:12:44;78.07;;;37.65;;
20348;SDS011;10332;50.208;18.988;2022-12-18T14:15:31;74.35;;;35.70;;
20348;SDS011;10332;50.208;18.988;2022-12-18T14:18:24;69.55;;;35.13;;
20348;SDS011;10332;50.208;18.988;2022-12-18T14:21:15;71.22;;;31.95;;
20348;SDS011;10332;50.208;18.988;2022-12-18T14:24:30;67.55;;;31.75;;
20348;SDS011;10332;50.208;18.988;2022-12-18T14:26:50;67.60;;;32.00;;
20348;SDS011;10332;50.208;18.988;2022-12-18T14:29:19;75.20;;;34.33;;
20348;SDS011;10332;50.208;18.988;2022-12-18T14:32:09;70.82;;;33.35;;
20348;SDS011;10332;50.208;18.988;2022-12-18T14:34:44;70.07;;;32.55;;
20348;SDS011;10332;50.208;18.988;2022-12-18T14:37:21;65.15;;;32.00;;
20348;SDS011;10332;50.208;18.988;2022-12-18T14:39:55;63.45;;;29.23;;
20348;SDS011;10332;50.208;18.988;2022-12-18T14:42:25;63.47;;;30.27;;
20348;SDS011;10332;50.208;18.988;2022-12-18T14:51:20;75.25;;;35.22;;
20348;SDS011;10332;50.208;18.988;2022-12-18T14:53:55;82.22;;;37.35;;
20348;SDS011;10332;50.208;18.988;2022-12-18T14:56:27;86.43;;;38.33;;
20348;SDS011;10332;50.208;18.988;2022-12-18T14:58:59;92.93;;;42.42;;
20348;SDS011;10332;50.208;18.988;2022-12-18T15:04:38;99.45;;;46.83;;
20348;SDS011;10332;50.208;18.988;2022-12-18T15:12:45;89.72;;;40.40;;
20348;SDS011;10332;50.208;18.988;2022-12-18T15:26:26;102.10;;;46.15;;
20348;SDS011;10332;50.208;18.988;2022-12-18T15:29:04;88.43;;;40.57;;
20348;SDS011;10332;50.208;18.988;2022-12-18T15:31:38;102.13;;;46.07;;
20348;SDS011;10332;50.208;18.988;2022-12-18T15:36:47;100.35;;;45.25;;
20348;SDS011;10332;50.208;18.988;2022-12-18T15:39:17;96.97;;;42.15;;
20348;SDS011;10332;50.208;18.988;2022-12-18T15:41:45;98.93;;;43.37;;
20348;SDS011;10332;50.208;18.988;2022-12-18T15:44:32;107.57;;;45.93;;
20348;SDS011;10332;50.208;18.988;2022-12-18T15:47:00;95.70;;;39.60;;
20348;SDS011;10332;50.208;18.988;2022-12-18T15:49:28;103.05;;;42.85;;
20348;SDS011;10332;50.208;18.988;2022-12-18T15:51:59;97.95;;;43.53;;
20348;SDS011;10332;50.208;18.988;2022-12-18T15:54:28;90.73;;;39.57;;
20348;SDS011;10332;50.208;18.988;2022-12-18T15:57:14;101.63;;;42.60;;
20348;SDS011;10332;50.208;18.988;2022-12-18T15:59:51;93.10;;;40.30;;
20348;SDS011;10332;50.208;18.988;2022-12-18T16:02:21;93.80;;;39.33;;
20348;SDS011;10332;50.208;18.988;2022-12-18T16:04:50;89.77;;;38.10;;
20348;SDS011;10332;50.208;18.988;2022-12-18T16:07:19;104.97;;;42.13;;
20348;SDS011;10332;50.208;18.988;2022-12-18T16:09:52;105.67;;;43.03;;
20348;SDS011;10332;50.208;18.988;2022-12-18T16:12:21;88.57;;;39.60;;
20348;SDS011;10332;50.208;18.988;2022-12-18T16:14:51;96.87;;;41.47;;
20348;SDS011;10332;50.208;18.988;2022-12-18T16:17:19;110.03;;;44.67;;
20348;SDS011;10332;50.208;18.988;2022-12-18T16:19:46;103.20;;;44.53;;
20348;SDS011;10332;50.208;18.988;2022-12-18T16:22:18;96.78;;;43.55;;
20348;SDS011;10332;50.208;18.988;2022-12-18T16:24:54;101.97;;;45.10;;
20348;SDS011;10332;50.208;18.988;2022-12-18T16:27:24;104.03;;;41.60;;
20348;SDS011;10332;50.208;18.988;2022-12-18T16:29:52;109.57;;;42.40;;
20348;SDS011;10332;50.208;18.988;2022-12-18T16:32:20;116.40;;;50.53;;
20348;SDS011;10332;50.208;18.988;2022-12-18T16:34:50;120.27;;;50.13;;
20348;SDS011;10332;50.208;18.988;2022-12-18T16:37:18;111.93;;;46.30;;
20348;SDS011;10332;50.208;18.988;2022-12-18T16:39:45;109.93;;;47.43;;
20348;SDS011;10332;50.208;18.988;2022-12-18T16:42:14;111.57;;;46.87;;
20348;SDS011;10332;50.208;18.988;2022-12-18T16:44:46;119.87;;;48.63;;
20348;SDS011;10332;50.208;18.988;2022-12-18T16:47:16;107.03;;;46.57;;
20348;SDS011;10332;50.208;18.988;2022-12-18T16:49:44;111.60;;;46.27;;
20348;SDS011;10332;50.208;18.988;2022-12-18T16:52:12;119.87;;;49.27;;
20348;SDS011;10332;50.208;18.988;2022-12-18T16:54:40;129.77;;;51.67;;
20348;SDS011;10332;50.208;18.988;2022-12-18T16:57:08;106.50;;;45.00;;
20348;SDS011;10332;50.208;18.988;2022-12-18T16:59:40;98.67;;;40.20;;
20348;SDS011;10332;50.208;18.988;2022-12-18T17:02:12;102.27;;;42.70;;